METAR Data
IDs: Format: Raw Decoded Include TAF

Data at: 1354 UTC 14 Dec 2019

PAOU 141326Z AUTO 14028G35KT 10SM -RA SCT029 OVC037 03/02 A2892 RMK AO2 PK WND 14037/1304 P0001
PAOU 141256Z AUTO 14029G36KT 10SM -RA OVC026 04/02 A2894 RMK AO2 PK WND 14036/1249 SLP798 P0001 T00390017
PAOU 141243Z AUTO 14027G30KT 8SM -RA BKN026 OVC032 03/02 A2895 RMK AO2 PK WND 13033/1228 P0000
PAOU 141156Z AUTO 14027G33KT 10SM -RA OVC038 04/01 A2898 RMK AO2 PK WND 14037/1135 RAB15 SLP814 P0000 60000 T00390011 10039 20028 56056
PAOU 141056Z AUTO 11022G28KT 10SM CLR 03/00 A2901 RMK AO2 PK WND 13032/1037 SLP824 T00330000
PAOU 140956Z AUTO 12019G26KT 10SM BKN033 BKN110 03/00 A2908 RMK AO2 PK WND 12030/0942 SLP848 T00330000
PAOU 140856Z AUTO 14029G35KT 10SM OVC035 03/M01 A2915 RMK AO2 PK WND 14035/0856 SLP869 T00331006 400330000 56045
PAOU 140756Z AUTO 14022G29KT 10SM FEW031 SCT110 03/M01 A2919 RMK AO2 PK WND 14029/0754 SLP883 T00331006
PAOU 140656Z AUTO 13018KT 10SM BKN040 03/M01 A2924 RMK AO2 SLP900 T00331011
PAOU 140556Z AUTO 12015KT 10SM CLR 03/M02 A2928 RMK AO2 SLP914 T00281017 10028 20017 58029
PAOU 140456Z AUTO 13014KT 10SM CLR 02/M02 A2931 RMK AO2 SLP926 T00221017 FZRANO
PAOU 140356Z AUTO 12014KT 10SM FEW041 02/M02 A2934 RMK AO2 SLP934 T00221022 FZRANO
PAOU 140256Z AUTO 12014KT 10SM CLR 02/M02 A2937 RMK AO2 SLP943 T00171017 56027 FZRANO
PAOU 140156Z AUTO 14015KT 10SM SCT050 02/M02 A2939 RMK AO2 SLP952 T00221022 FZRANO
PAOU 140056Z AUTO 13012KT 10SM CLR 02/M02 A2941 RMK AO2 SLP959 T00221017 FZRANO
PAOU 132356Z AUTO 16007KT 10SM CLR 02/M02 A2944 RMK AO2 SLP970 T00221022 10028 20000 58004 FZRANO
PAOU 132256Z AUTO 18007KT 10SM CLR 02/M02 A2946 RMK AO2 SLP975 T00221017 FZRANO
PAOU 132156Z AUTO 20009KT 10SM CLR 02/M02 A2947 RMK AO2 SLP977 T00221022 FZRANO
PAOU 132056Z AUTO 19009KT 10SM CLR 01/M02 A2946 RMK AO2 SLP974 T00111017 51010 FZRANO
PAOU 131956Z AUTO 23007KT 10SM CLR 01/M02 A2945 RMK AO2 SLP971 T00061017 FZRANO
PAOU 131856Z AUTO 24010KT 10SM CLR 01/M02 A2944 RMK AO2 SLP968 T00061017 FZRANO
PAOU 131756Z AUTO 23009KT 10SM OVC043 01/M01 A2943 RMK AO2 SLP964 T00061011 10033 20006 53006 FZRANO
PAOU 131556Z AUTO 24009KT 10SM OVC045 01/M02 A2941 RMK AO2 SLP960 T00111017 FZRANO
PAOU 131456Z AUTO 23006KT 10SM FEW038 OVC047 02/M02 A2941 RMK AO2 SLP958 T00171017 51010 FZRANO
PAOU 131356Z AUTO 29014KT 10SM BKN042 OVC090 03/M03 A2940 RMK AO2 SLP956 T00331028
PAOU 131256Z AUTO 29016KT 10SM OVC085 03/M03 A2939 RMK AO2 SLP950 T00331028
PAOU 131156Z AUTO 29017KT 10SM OVC050 03/M02 A2938 RMK AO2 SLP948 60000 70007 T00331022 10039 20022 53015
PAOU 131056Z AUTO 28018KT 10SM OVC034 03/M02 A2936 RMK AO2 SLP943 T00331017
PAOU 131024Z AUTO 28019KT 10SM OVC030 03/M01 A2935 RMK AO2
PAOU 130956Z AUTO 29018G23KT 9SM SCT018 OVC025 03/M01 A2935 RMK AO2 RAE01B26E36UPB36E54 SLP937 P0000 T00331006
PAOU 130856Z AUTO 29021G25KT 9SM -RA BKN023 OVC033 03/00 A2933 RMK AO2 PK WND 28027/0829 RAB21UPB31E42 SLP933 P0000 60000 T00330000 400390028 53014
PAOU 130756Z AUTO 29020KT 8SM OVC023 04/01 A2932 RMK AO2 PK WND 28028/0737 SLP927 T00390006
PAOU 130656Z AUTO 28022G26KT 7SM BKN023 OVC060 04/01 A2930 RMK AO2 PK WND 29030/0616 RAE24 SLP920 P0000 T00390006
PAOU 130556Z AUTO 28025G28KT 7SM -RA SCT015 BKN021 OVC026 03/01 A2929 RMK AO2 PK WND 28029/0526 RAE27B51 SLP919 P0000 60000 T00330011 10039 20033 53010
PAOU 130456Z AUTO 29020G27KT 7SM -RA BKN017 OVC028 03/01 A2928 RMK AO2 PK WND 29030/0422 RAB12 SLP916 P0000 T00330011
PAOU 130356Z AUTO 28021G28KT 6SM HZ OVC019 04/01 A2927 RMK AO2 PK WND 29032/0314 SLP912 T00390011
PAOU 130304Z AUTO 29026G30KT 6SM BR BKN015 OVC019 03/01 A2927 RMK AO2 PK WND 29030/0302
PAOU 130256Z AUTO 29024G28KT 6SM BR OVC013 03/02 A2926 RMK AO2 PK WND 29032/0226 RAE53 SLP909 P0000 60000 T00330017 51006
PAOU 130156Z AUTO 29026G32KT 4SM -RA BR OVC012 03/02 A2925 RMK AO2 PK WND 29032/0148 RAB0059 SLP904 P0000 T00330022